sensor_id;sensor_type;location;lat;lon;timestamp;pressure;altitude;pressure_sealevel;temperature;humidity
28628;BME280;15815;46.760;19.604;2023-04-04T00:01:40;100452.22;;;2.04;56.99
28628;BME280;15815;46.760;19.604;2023-04-04T00:04:06;100454.44;;;1.99;56.98
28628;BME280;15815;46.760;19.604;2023-04-04T00:06:31;100429.31;;;1.83;57.38
28628;BME280;15815;46.760;19.604;2023-04-04T00:08:58;100439.97;;;1.93;57.71
28628;BME280;15815;46.760;19.604;2023-04-04T00:11:25;100410.94;;;1.78;57.28
28628;BME280;15815;46.760;19.604;2023-04-04T00:13:51;100426.88;;;1.81;57.70
28628;BME280;15815;46.760;19.604;2023-04-04T00:16:20;100427.00;;;1.85;56.71
28628;BME280;15815;46.760;19.604;2023-04-04T00:18:46;100419.94;;;1.75;57.64
28628;BME280;15815;46.760;19.604;2023-04-04T00:21:11;100420.78;;;1.88;57.68
28628;BME280;15815;46.760;19.604;2023-04-04T00:23:39;100416.25;;;1.83;57.18
28628;BME280;15815;46.760;19.604;2023-04-04T00:26:05;100410.25;;;1.81;57.47
28628;BME280;15815;46.760;19.604;2023-04-04T00:28:31;100399.88;;;1.78;57.32
28628;BME280;15815;46.760;19.604;2023-04-04T00:30:56;100393.16;;;1.79;57.97
28628;BME280;15815;46.760;19.604;2023-04-04T00:33:22;100397.66;;;1.84;57.67
28628;BME280;15815;46.760;19.604;2023-04-04T00:35:48;100390.50;;;1.83;57.64
28628;BME280;15815;46.760;19.604;2023-04-04T00:38:14;100384.28;;;1.74;57.97
28628;BME280;15815;46.760;19.604;2023-04-04T00:40:44;100395.81;;;1.76;58.07
28628;BME280;15815;46.760;19.604;2023-04-04T00:43:11;100381.72;;;1.81;57.76
28628;BME280;15815;46.760;19.604;2023-04-04T00:45:37;100366.59;;;1.66;58.23
28628;BME280;15815;46.760;19.604;2023-04-04T00:48:03;100373.75;;;1.79;57.84
28628;BME280;15815;46.760;19.604;2023-04-04T00:50:30;100352.63;;;1.75;58.00
28628;BME280;15815;46.760;19.604;2023-04-04T00:52:55;100360.13;;;1.74;57.20
28628;BME280;15815;46.760;19.604;2023-04-04T00:55:21;100369.25;;;1.75;56.99
28628;BME280;15815;46.760;19.604;2023-04-04T00:57:47;100371.56;;;1.85;57.28
28628;BME280;15815;46.760;19.604;2023-04-04T01:00:13;100343.28;;;1.67;57.71
28628;BME280;15815;46.760;19.604;2023-04-04T01:02:41;100342.34;;;1.75;57.75
28628;BME280;15815;46.760;19.604;2023-04-04T01:05:08;100352.88;;;1.82;58.22
28628;BME280;15815;46.760;19.604;2023-04-04T01:07:34;100332.53;;;1.78;58.80
28628;BME280;15815;46.760;19.604;2023-04-04T01:10:00;100340.50;;;1.79;58.57
28628;BME280;15815;46.760;19.604;2023-04-04T01:12:27;100347.31;;;1.82;57.72
28628;BME280;15815;46.760;19.604;2023-04-04T01:14:53;100338.19;;;1.81;57.74
28628;BME280;15815;46.760;19.604;2023-04-04T01:17:19;100311.19;;;1.66;57.98
28628;BME280;15815;46.760;19.604;2023-04-04T01:19:52;100339.13;;;1.85;58.01
28628;BME280;15815;46.760;19.604;2023-04-04T01:22:22;100316.72;;;1.66;57.88
28628;BME280;15815;46.760;19.604;2023-04-04T01:24:50;100332.31;;;1.83;57.99
28628;BME280;15815;46.760;19.604;2023-04-04T01:27:16;100339.00;;;1.82;57.71
28628;BME280;15815;46.760;19.604;2023-04-04T01:29:43;100327.91;;;1.82;58.66
28628;BME280;15815;46.760;19.604;2023-04-04T01:32:15;100341.09;;;1.85;58.28
28628;BME280;15815;46.760;19.604;2023-04-04T01:40:15;100320.31;;;1.67;58.30
28628;BME280;15815;46.760;19.604;2023-04-04T01:42:44;100343.50;;;1.74;58.63
28628;BME280;15815;46.760;19.604;2023-04-04T01:45:13;100329.78;;;1.66;58.48
28628;BME280;15815;46.760;19.604;2023-04-04T01:47:40;100338.53;;;1.68;58.96
28628;BME280;15815;46.760;19.604;2023-04-04T01:50:07;100340.16;;;1.69;59.23
28628;BME280;15815;46.760;19.604;2023-04-04T01:52:33;100342.31;;;1.63;58.95
28628;BME280;15815;46.760;19.604;2023-04-04T01:54:59;100309.31;;;1.46;59.03
28628;BME280;15815;46.760;19.604;2023-04-04T01:57:25;100328.47;;;1.63;59.44
28628;BME280;15815;46.760;19.604;2023-04-04T01:59:51;100329.03;;;1.57;59.99
28628;BME280;15815;46.760;19.604;2023-04-04T02:02:17;100335.03;;;1.59;59.99
28628;BME280;15815;46.760;19.604;2023-04-04T02:04:42;100324.06;;;1.50;59.41
28628;BME280;15815;46.760;19.604;2023-04-04T02:07:08;100324.19;;;1.41;59.97
28628;BME280;15815;46.760;19.604;2023-04-04T02:09:34;100332.16;;;1.43;60.25
28628;BME280;15815;46.760;19.604;2023-04-04T02:12:00;100318.53;;;1.38;60.95
28628;BME280;15815;46.760;19.604;2023-04-04T02:14:26;100295.75;;;1.20;61.04
28628;BME280;15815;46.760;19.604;2023-04-04T02:16:52;100333.41;;;1.45;61.20
28628;BME280;15815;46.760;19.604;2023-04-04T02:19:18;100305.19;;;1.19;61.39
28628;BME280;15815;46.760;19.604;2023-04-04T02:21:44;100332.56;;;1.33;61.50
28628;BME280;15815;46.760;19.604;2023-04-04T02:24:09;100312.78;;;1.10;61.17
28628;BME280;15815;46.760;19.604;2023-04-04T02:26:35;100328.72;;;1.13;62.36
28628;BME280;15815;46.760;19.604;2023-04-04T02:29:01;100318.78;;;1.12;62.07
28628;BME280;15815;46.760;19.604;2023-04-04T02:31:27;100334.38;;;1.16;61.90
28628;BME280;15815;46.760;19.604;2023-04-04T02:33:53;100351.69;;;1.13;62.32
28628;BME280;15815;46.760;19.604;2023-04-04T02:36:19;100317.00;;;0.95;62.45
28628;BME280;15815;46.760;19.604;2023-04-04T02:38:45;100334.53;;;0.99;62.92
28628;BME280;15815;46.760;19.604;2023-04-04T02:41:11;100331.28;;;0.97;63.32
28628;BME280;15815;46.760;19.604;2023-04-04T02:43:36;100301.56;;;0.73;63.22
28628;BME280;15815;46.760;19.604;2023-04-04T02:46:03;100311.25;;;0.79;63.94
28628;BME280;15815;46.760;19.604;2023-04-04T02:48:29;100307.63;;;0.87;63.48
28628;BME280;15815;46.760;19.604;2023-04-04T02:50:55;100321.94;;;0.89;63.73
28628;BME280;15815;46.760;19.604;2023-04-04T02:53:21;100323.59;;;0.82;64.08
28628;BME280;15815;46.760;19.604;2023-04-04T02:55:47;100305.94;;;0.74;64.28
28628;BME280;15815;46.760;19.604;2023-04-04T02:58:16;100315.13;;;0.87;64.00
28628;BME280;15815;46.760;19.604;2023-04-04T03:00:41;100319.72;;;0.83;64.50
28628;BME280;15815;46.760;19.604;2023-04-04T03:03:07;100328.63;;;0.88;64.33
28628;BME280;15815;46.760;19.604;2023-04-04T03:05:36;100312.41;;;0.78;64.76
28628;BME280;15815;46.760;19.604;2023-04-04T03:08:02;100315.00;;;0.83;64.51
28628;BME280;15815;46.760;19.604;2023-04-04T03:10:28;100305.06;;;0.82;64.79
28628;BME280;15815;46.760;19.604;2023-04-04T03:12:54;100274.09;;;0.68;65.23
28628;BME280;15815;46.760;19.604;2023-04-04T03:15:19;100290.84;;;0.72;65.37
28628;BME280;15815;46.760;19.604;2023-04-04T03:17:45;100284.03;;;0.69;65.31
28628;BME280;15815;46.760;19.604;2023-04-04T03:20:13;100283.22;;;0.69;65.41
28628;BME280;15815;46.760;19.604;2023-04-04T03:22:39;100283.56;;;0.67;65.42
28628;BME280;15815;46.760;19.604;2023-04-04T03:25:05;100281.00;;;0.62;65.65
28628;BME280;15815;46.760;19.604;2023-04-04T03:27:31;100275.34;;;0.58;66.03
28628;BME280;15815;46.760;19.604;2023-04-04T03:29:57;100280.19;;;0.61;66.01
28628;BME280;15815;46.760;19.604;2023-04-04T03:32:23;100259.28;;;0.52;66.08
28628;BME280;15815;46.760;19.604;2023-04-04T03:34:49;100277.78;;;0.60;66.10
28628;BME280;15815;46.760;19.604;2023-04-04T03:37:14;100277.44;;;0.61;66.20
28628;BME280;15815;46.760;19.604;2023-04-04T03:39:40;100281.00;;;0.62;66.41
28628;BME280;15815;46.760;19.604;2023-04-04T03:42:05;100271.31;;;0.56;66.24
28628;BME280;15815;46.760;19.604;2023-04-04T03:44:31;100271.59;;;0.54;66.20
28628;BME280;15815;46.760;19.604;2023-04-04T03:46:56;100274.53;;;0.58;65.90
28628;BME280;15815;46.760;19.604;2023-04-04T03:49:22;100286.88;;;0.60;66.21
28628;BME280;15815;46.760;19.604;2023-04-04T03:51:47;100291.38;;;0.65;65.82
28628;BME280;15815;46.760;19.604;2023-04-04T03:54:13;100295.31;;;0.64;65.56
28628;BME280;15815;46.760;19.604;2023-04-04T03:56:38;100287.72;;;0.52;65.92
28628;BME280;15815;46.760;19.604;2023-04-04T03:59:04;100288.38;;;0.58;66.15
28628;BME280;15815;46.760;19.604;2023-04-04T04:01:30;100273.84;;;0.61;66.25
28628;BME280;15815;46.760;19.604;2023-04-04T04:03:55;100287.59;;;0.70;66.22
28628;BME280;15815;46.760;19.604;2023-04-04T04:06:24;100274.19;;;0.59;66.05
28628;BME280;15815;46.760;19.604;2023-04-04T04:08:49;100282.63;;;0.63;65.82
28628;BME280;15815;46.760;19.604;2023-04-04T04:11:15;100274.53;;;0.58;65.89
28628;BME280;15815;46.760;19.604;2023-04-04T04:13:40;100266.75;;;0.51;65.56
28628;BME280;15815;46.760;19.604;2023-04-04T04:16:07;100292.31;;;0.69;65.64
28628;BME280;15815;46.760;19.604;2023-04-04T04:18:32;100282.63;;;0.63;65.58
28628;BME280;15815;46.760;19.604;2023-04-04T04:20:58;100290.72;;;0.68;65.79
28628;BME280;15815;46.760;19.604;2023-04-04T04:23:24;100285.03;;;0.65;66.01
28628;BME280;15815;46.760;19.604;2023-04-04T04:25:54;100273.84;;;0.61;65.75
28628;BME280;15815;46.760;19.604;2023-04-04T04:28:20;100290.56;;;0.65;66.13
28628;BME280;15815;46.760;19.604;2023-04-04T04:30:46;100270.63;;;0.59;65.73
28628;BME280;15815;46.760;19.604;2023-04-04T04:33:12;100300.81;;;0.85;65.86
28628;BME280;15815;46.760;19.604;2023-04-04T04:35:39;100294.25;;;0.89;65.45
28628;BME280;15815;46.760;19.604;2023-04-04T04:38:05;100279.91;;;0.75;65.68
28628;BME280;15815;46.760;19.604;2023-04-04T04:40:31;100277.06;;;0.84;65.88
28628;BME280;15815;46.760;19.604;2023-04-04T04:42:57;100287.09;;;0.88;64.83
28628;BME280;15815;46.760;19.604;2023-04-04T04:45:22;100270.56;;;0.80;65.18
28628;BME280;15815;46.760;19.604;2023-04-04T04:48:00;100292.56;;;0.97;64.75
28628;BME280;15815;46.760;19.604;2023-04-04T04:50:26;100282.06;;;1.03;64.69
28628;BME280;15815;46.760;19.604;2023-04-04T04:52:51;100276.31;;;1.08;64.42
28628;BME280;15815;46.760;19.604;2023-04-04T04:55:17;100274.69;;;1.07;64.13
28628;BME280;15815;46.760;19.604;2023-04-04T04:57:45;100291.25;;;1.28;64.72
28628;BME280;15815;46.760;19.604;2023-04-04T05:00:11;100267.94;;;1.16;64.22
28628;BME280;15815;46.760;19.604;2023-04-04T05:02:37;100285.28;;;1.38;63.76
28628;BME280;15815;46.760;19.604;2023-04-04T05:05:03;100256.41;;;1.27;63.61
28628;BME280;15815;46.760;19.604;2023-04-04T05:07:29;100310.81;;;1.55;63.77
28628;BME280;15815;46.760;19.604;2023-04-04T05:09:56;100310.34;;;1.53;62.93
28628;BME280;15815;46.760;19.604;2023-04-04T05:12:22;100324.66;;;1.55;62.41
28628;BME280;15815;46.760;19.604;2023-04-04T05:14:47;100311.38;;;1.61;63.33
28628;BME280;15815;46.760;19.604;2023-04-04T05:17:13;100297.34;;;1.66;62.67
28628;BME280;15815;46.760;19.604;2023-04-04T05:19:38;100292.25;;;1.68;63.32
28628;BME280;15815;46.760;19.604;2023-04-04T05:22:05;100291.78;;;1.78;62.29
28628;BME280;15815;46.760;19.604;2023-04-04T05:24:30;100281.41;;;1.75;62.38
28628;BME280;15815;46.760;19.604;2023-04-04T05:26:56;100264.41;;;1.77;62.16
28628;BME280;15815;46.760;19.604;2023-04-04T05:29:21;100263.16;;;1.74;62.05
28628;BME280;15815;46.760;19.604;2023-04-04T05:31:47;100249.50;;;1.81;61.66
28628;BME280;15815;46.760;19.604;2023-04-04T05:34:13;100271.34;;;1.95;62.05
28628;BME280;15815;46.760;19.604;2023-04-04T05:36:38;100245.69;;;1.86;61.60
28628;BME280;15815;46.760;19.604;2023-04-04T05:39:04;100244.34;;;1.92;62.15
28628;BME280;15815;46.760;19.604;2023-04-04T05:41:30;100237.94;;;2.04;60.95
28628;BME280;15815;46.760;19.604;2023-04-04T05:43:56;100252.81;;;2.11;60.53
28628;BME280;15815;46.760;19.604;2023-04-04T05:46:22;100241.84;;;2.15;61.46
28628;BME280;15815;46.760;19.604;2023-04-04T05:48:47;100262.25;;;2.35;61.15
28628;BME280;15815;46.760;19.604;2023-04-04T05:51:13;100265.94;;;2.39;61.15
28628;BME280;15815;46.760;19.604;2023-04-04T05:53:39;100257.38;;;2.44;60.92
28628;BME280;15815;46.760;19.604;2023-04-04T05:56:04;100273.75;;;2.61;61.44
28628;BME280;15815;46.760;19.604;2023-04-04T05:58:30;100264.50;;;2.57;60.53
28628;BME280;15815;46.760;19.604;2023-04-04T06:00:55;100299.44;;;2.86;60.61
28628;BME280;15815;46.760;19.604;2023-04-04T06:03:21;100299.63;;;2.93;60.97
28628;BME280;15815;46.760;19.604;2023-04-04T06:05:51;100302.50;;;2.97;60.05
28628;BME280;15815;46.760;19.604;2023-04-04T06:08:16;100302.28;;;3.02;59.79
28628;BME280;15815;46.760;19.604;2023-04-04T06:10:42;100298.28;;;3.15;59.33
28628;BME280;15815;46.760;19.604;2023-04-04T06:13:08;100295.69;;;3.22;58.82
28628;BME280;15815;46.760;19.604;2023-04-04T06:15:33;100315.78;;;3.31;59.45
28628;BME280;15815;46.760;19.604;2023-04-04T06:17:59;100303.97;;;3.34;58.82
28628;BME280;15815;46.760;19.604;2023-04-04T06:20:24;100283.63;;;3.46;58.95
28628;BME280;15815;46.760;19.604;2023-04-04T06:22:50;100274.50;;;3.61;59.52
28628;BME280;15815;46.760;19.604;2023-04-04T06:25:19;100282.72;;;3.73;58.16
28628;BME280;15815;46.760;19.604;2023-04-04T06:27:45;100286.03;;;3.79;58.47
28628;BME280;15815;46.760;19.604;2023-04-04T06:30:11;100287.28;;;3.97;57.52
28628;BME280;15815;46.760;19.604;2023-04-04T06:32:37;100269.09;;;3.84;57.09
28628;BME280;15815;46.760;19.604;2023-04-04T06:35:03;100271.16;;;3.87;54.81
28628;BME280;15815;46.760;19.604;2023-04-04T06:37:29;100264.00;;;3.86;55.89
28628;BME280;15815;46.760;19.604;2023-04-04T06:39:56;100291.31;;;4.00;53.99
28628;BME280;15815;46.760;19.604;2023-04-04T06:42:22;100277.13;;;4.05;55.63
28628;BME280;15815;46.760;19.604;2023-04-04T06:44:48;100295.06;;;4.08;53.89
28628;BME280;15815;46.760;19.604;2023-04-04T06:47:13;100303.91;;;4.29;53.61
28628;BME280;15815;46.760;19.604;2023-04-04T06:49:39;100298.19;;;4.22;52.55
28628;BME280;15815;46.760;19.604;2023-04-04T06:52:04;100275.88;;;4.18;52.63
28628;BME280;15815;46.760;19.604;2023-04-04T06:54:30;100275.22;;;4.25;52.09
28628;BME280;15815;46.760;19.604;2023-04-04T06:56:56;100279.31;;;4.31;53.00
28628;BME280;15815;46.760;19.604;2023-04-04T06:59:22;100296.50;;;4.52;52.96
28628;BME280;15815;46.760;19.604;2023-04-04T07:01:48;100299.56;;;4.47;51.34
28628;BME280;15815;46.760;19.604;2023-04-04T07:04:13;100290.94;;;4.52;50.76
28628;BME280;15815;46.760;19.604;2023-04-04T07:06:39;100294.44;;;4.49;52.37
28628;BME280;15815;46.760;19.604;2023-04-04T07:09:04;100301.72;;;4.73;51.72
28628;BME280;15815;46.760;19.604;2023-04-04T07:11:30;100293.75;;;4.72;51.62
28628;BME280;15815;46.760;19.604;2023-04-04T07:13:55;100301.88;;;4.80;51.41
28628;BME280;15815;46.760;19.604;2023-04-04T07:16:21;100295.44;;;4.76;52.32
28628;BME280;15815;46.760;19.604;2023-04-04T07:18:46;100297.81;;;4.58;49.53
28628;BME280;15815;46.760;19.604;2023-04-04T07:21:12;100320.94;;;4.78;51.57
28628;BME280;15815;46.760;19.604;2023-04-04T07:23:41;100302.25;;;4.98;52.50
28628;BME280;15815;46.760;19.604;2023-04-04T07:26:06;100297.97;;;4.85;51.60
28628;BME280;15815;46.760;19.604;2023-04-04T07:28:32;100307.66;;;4.91;50.45
28628;BME280;15815;46.760;19.604;2023-04-04T07:31:00;100314.69;;;5.04;52.62
28628;BME280;15815;46.760;19.604;2023-04-04T07:33:26;100292.91;;;5.10;51.87
28628;BME280;15815;46.760;19.604;2023-04-04T07:35:52;100300.91;;;5.11;50.99
28628;BME280;15815;46.760;19.604;2023-04-04T07:38:18;100305.22;;;5.28;51.12
28628;BME280;15815;46.760;19.604;2023-04-04T07:40:43;100312.59;;;5.40;51.48
28628;BME280;15815;46.760;19.604;2023-04-04T07:43:09;100303.44;;;5.39;50.64
28628;BME280;15815;46.760;19.604;2023-04-04T07:45:34;100293.84;;;5.59;50.75
28628;BME280;15815;46.760;19.604;2023-04-04T07:48:00;100310.59;;;5.59;50.03
28628;BME280;15815;46.760;19.604;2023-04-04T07:50:25;100291.44;;;5.58;50.37
28628;BME280;15815;46.760;19.604;2023-04-04T07:52:51;100286.53;;;5.51;50.40
28628;BME280;15815;46.760;19.604;2023-04-04T07:55:17;100289.50;;;5.62;49.31
28628;BME280;15815;46.760;19.604;2023-04-04T07:57:42;100292.34;;;5.66;48.21
28628;BME280;15815;46.760;19.604;2023-04-04T08:00:08;100312.63;;;5.85;49.36
28628;BME280;15815;46.760;19.604;2023-04-04T08:02:37;100297.34;;;5.76;47.95
28628;BME280;15815;46.760;19.604;2023-04-04T08:05:04;100319.19;;;5.74;48.60
28628;BME280;15815;46.760;19.604;2023-04-04T08:07:30;100290.06;;;5.71;48.18
28628;BME280;15815;46.760;19.604;2023-04-04T08:09:55;100298.44;;;5.94;49.29
28628;BME280;15815;46.760;19.604;2023-04-04T08:12:21;100310.66;;;6.09;49.14
28628;BME280;15815;46.760;19.604;2023-04-04T08:14:47;100295.47;;;6.06;49.67
28628;BME280;15815;46.760;19.604;2023-04-04T08:17:12;100302.38;;;6.16;48.94
28628;BME280;15815;46.760;19.604;2023-04-04T08:19:38;100284.34;;;6.10;48.59
28628;BME280;15815;46.760;19.604;2023-04-04T08:22:03;100280.50;;;6.18;48.31
28628;BME280;15815;46.760;19.604;2023-04-04T08:24:29;100276.63;;;6.26;48.99
28628;BME280;15815;46.760;19.604;2023-04-04T08:26:54;100303.63;;;6.45;48.61
28628;BME280;15815;46.760;19.604;2023-04-04T08:29:20;100282.25;;;6.30;48.57
28628;BME280;15815;46.760;19.604;2023-04-04T08:31:46;100270.50;;;6.43;46.53
28628;BME280;15815;46.760;19.604;2023-04-04T08:34:11;100260.00;;;6.33;47.79
28628;BME280;15815;46.760;19.604;2023-04-04T08:36:37;100275.03;;;6.55;46.94
28628;BME280;15815;46.760;19.604;2023-04-04T08:39:02;100283.59;;;6.69;46.79
28628;BME280;15815;46.760;19.604;2023-04-04T08:41:31;100270.19;;;6.82;47.95
28628;BME280;15815;46.760;19.604;2023-04-04T08:44:00;100263.88;;;6.85;47.83
28628;BME280;15815;46.760;19.604;2023-04-04T08:46:26;100274.09;;;6.74;46.41
28628;BME280;15815;46.760;19.604;2023-04-04T08:48:55;100276.56;;;6.82;46.56
28628;BME280;15815;46.760;19.604;2023-04-04T08:51:21;100281.94;;;6.95;45.76
28628;BME280;15815;46.760;19.604;2023-04-04T08:53:49;100283.69;;;7.10;47.12
28628;BME280;15815;46.760;19.604;2023-04-04T08:56:15;100279.72;;;7.11;47.81
28628;BME280;15815;46.760;19.604;2023-04-04T08:58:41;100275.41;;;7.17;47.96
28628;BME280;15815;46.760;19.604;2023-04-04T09:01:07;100266.06;;;7.02;46.30
28628;BME280;15815;46.760;19.604;2023-04-04T09:03:33;100288.47;;;7.09;45.19
28628;BME280;15815;46.760;19.604;2023-04-04T09:05:58;100286.66;;;7.24;45.49
28628;BME280;15815;46.760;19.604;2023-04-04T09:08:25;100271.59;;;7.36;47.29
28628;BME280;15815;46.760;19.604;2023-04-04T09:10:51;100293.06;;;7.65;46.85
28628;BME280;15815;46.760;19.604;2023-04-04T09:13:17;100282.59;;;7.55;45.68
28628;BME280;15815;46.760;19.604;2023-04-04T09:15:49;100282.19;;;7.57;45.99
28628;BME280;15815;46.760;19.604;2023-04-04T09:18:15;100280.63;;;7.59;45.56
28628;BME280;15815;46.760;19.604;2023-04-04T09:20:45;100280.69;;;7.66;46.98
28628;BME280;15815;46.760;19.604;2023-04-04T09:23:18;100277.56;;;7.71;48.04
28628;BME280;15815;46.760;19.604;2023-04-04T09:25:52;100267.94;;;7.69;46.35
28628;BME280;15815;46.760;19.604;2023-04-04T09:28:19;100279.56;;;7.74;46.78
28628;BME280;15815;46.760;19.604;2023-04-04T09:30:51;100263.91;;;7.66;47.07
28628;BME280;15815;46.760;19.604;2023-04-04T09:33:18;100281.03;;;7.61;45.02
28628;BME280;15815;46.760;19.604;2023-04-04T09:35:48;100275.88;;;7.63;44.44
28628;BME280;15815;46.760;19.604;2023-04-04T09:38:15;100267.06;;;7.61;44.86
28628;BME280;15815;46.760;19.604;2023-04-04T09:40:41;100251.59;;;7.74;46.49
28628;BME280;15815;46.760;19.604;2023-04-04T09:43:08;100254.47;;;7.85;45.97
28628;BME280;15815;46.760;19.604;2023-04-04T09:45:43;100264.25;;;7.61;43.41
28628;BME280;15815;46.760;19.604;2023-04-04T09:48:11;100281.78;;;7.99;45.25
28628;BME280;15815;46.760;19.604;2023-04-04T09:50:44;100262.97;;;7.96;46.26
28628;BME280;15815;46.760;19.604;2023-04-04T09:53:18;100274.09;;;7.89;44.90
28628;BME280;15815;46.760;19.604;2023-04-04T09:55:54;100272.44;;;7.84;44.65
28628;BME280;15815;46.760;19.604;2023-04-04T09:58:24;100283.44;;;8.07;45.52
28628;BME280;15815;46.760;19.604;2023-04-04T10:00:56;100279.41;;;8.01;44.55
28628;BME280;15815;46.760;19.604;2023-04-04T10:03:23;100282.88;;;7.87;44.80
28628;BME280;15815;46.760;19.604;2023-04-04T10:06:03;100293.28;;;7.90;43.76
28628;BME280;15815;46.760;19.604;2023-04-04T10:08:29;100294.56;;;7.96;46.28
28628;BME280;15815;46.760;19.604;2023-04-04T10:11:04;100284.88;;;7.90;45.63
28628;BME280;15815;46.760;19.604;2023-04-04T10:13:32;100265.69;;;7.89;48.62
28628;BME280;15815;46.760;19.604;2023-04-04T10:15:58;100285.75;;;7.94;44.70
28628;BME280;15815;46.760;19.604;2023-04-04T10:18:26;100288.63;;;8.05;45.89
28628;BME280;15815;46.760;19.604;2023-04-04T10:20:53;100288.19;;;7.99;45.94
28628;BME280;15815;46.760;19.604;2023-04-04T10:23:23;100287.69;;;7.90;43.85
28628;BME280;15815;46.760;19.604;2023-04-04T10:25:50;100288.88;;;7.89;43.87
28628;BME280;15815;46.760;19.604;2023-04-04T10:28:19;100294.91;;;7.91;44.45
28628;BME280;15815;46.760;19.604;2023-04-04T10:30:53;100296.56;;;7.96;45.32
28628;BME280;15815;46.760;19.604;2023-04-04T10:36:08;100289.84;;;8.07;45.36
28628;BME280;15815;46.760;19.604;2023-04-04T10:38:44;100280.19;;;8.01;45.14
28628;BME280;15815;46.760;19.604;2023-04-04T10:41:12;100270.97;;;7.97;48.12
28628;BME280;15815;46.760;19.604;2023-04-04T10:43:39;100288.19;;;7.99;44.17
28628;BME280;15815;46.760;19.604;2023-04-04T10:46:12;100286.47;;;7.88;44.21
28628;BME280;15815;46.760;19.604;2023-04-04T10:48:40;100271.13;;;7.67;43.92
28628;BME280;15815;46.760;19.604;2023-04-04T10:51:06;100299.66;;;7.87;44.52
28628;BME280;15815;46.760;19.604;2023-04-04T10:53:33;100288.06;;;7.85;45.22
28628;BME280;15815;46.760;19.604;2023-04-04T10:56:00;100277.59;;;7.79;44.50
28628;BME280;15815;46.760;19.604;2023-04-04T10:58:27;100270.78;;;7.72;44.91
28628;BME280;15815;46.760;19.604;2023-04-04T11:00:54;100261.59;;;7.75;45.07
28628;BME280;15815;46.760;19.604;2023-04-04T11:03:20;100252.72;;;7.66;45.34
28628;BME280;15815;46.760;19.604;2023-04-04T11:05:47;100268.44;;;7.82;46.13
28628;BME280;15815;46.760;19.604;2023-04-04T11:08:22;100282.13;;;7.94;44.32
28628;BME280;15815;46.760;19.604;2023-04-04T11:10:54;100278.56;;;7.97;44.94
28628;BME280;15815;46.760;19.604;2023-04-04T11:13:32;100291.81;;;8.03;45.10
28628;BME280;15815;46.760;19.604;2023-04-04T11:16:05;100274.91;;;7.93;43.77
28628;BME280;15815;46.760;19.604;2023-04-04T11:21:06;100265.06;;;8.10;47.31
28628;BME280;15815;46.760;19.604;2023-04-04T11:28:51;100264.41;;;8.30;45.18
28628;BME280;15815;46.760;19.604;2023-04-04T11:31:21;100278.91;;;8.47;44.67
28628;BME280;15815;46.760;19.604;2023-04-04T11:34:06;100271.31;;;8.44;42.64
28628;BME280;15815;46.760;19.604;2023-04-04T11:39:07;100276.56;;;8.52;44.23
28628;BME280;15815;46.760;19.604;2023-04-04T11:42:06;100264.63;;;8.62;43.31
28628;BME280;15815;46.760;19.604;2023-04-04T11:44:40;100269.81;;;8.64;42.29
28628;BME280;15815;46.760;19.604;2023-04-04T11:49:41;100258.22;;;8.69;41.82
28628;BME280;15815;46.760;19.604;2023-04-04T11:52:12;100257.09;;;8.77;42.01
28628;BME280;15815;46.760;19.604;2023-04-04T11:54:40;100263.91;;;8.83;42.55
28628;BME280;15815;46.760;19.604;2023-04-04T11:57:06;100232.63;;;8.67;42.18
28628;BME280;15815;46.760;19.604;2023-04-04T11:59:33;100267.13;;;8.89;42.46
28628;BME280;15815;46.760;19.604;2023-04-04T12:01:58;100265.53;;;8.91;41.93
28628;BME280;15815;46.760;19.604;2023-04-04T12:04:24;100255.50;;;8.83;41.88
28628;BME280;15815;46.760;19.604;2023-04-04T12:06:54;100260.66;;;8.74;41.19
28628;BME280;15815;46.760;19.604;2023-04-04T12:09:22;100253.81;;;8.68;41.21
28628;BME280;15815;46.760;19.604;2023-04-04T12:11:50;100262.63;;;8.63;41.18
28628;BME280;15815;46.760;19.604;2023-04-04T12:14:20;100255.03;;;8.67;41.17
28628;BME280;15815;46.760;19.604;2023-04-04T12:16:47;100259.00;;;8.62;41.45
28628;BME280;15815;46.760;19.604;2023-04-04T12:19:18;100250.63;;;8.70;41.47
28628;BME280;15815;46.760;19.604;2023-04-04T12:21:48;100249.44;;;8.71;41.61
28628;BME280;15815;46.760;19.604;2023-04-04T12:24:15;100260.66;;;8.74;41.56
28628;BME280;15815;46.760;19.604;2023-04-04T12:26:44;100255.06;;;8.74;41.58
28628;BME280;15815;46.760;19.604;2023-04-04T12:29:14;100263.06;;;8.72;39.59
28628;BME280;15815;46.760;19.604;2023-04-04T12:31:45;100243.09;;;8.77;39.74
28628;BME280;15815;46.760;19.604;2023-04-04T12:34:29;100240.72;;;8.93;40.50
28628;BME280;15815;46.760;19.604;2023-04-04T12:36:56;100252.34;;;8.95;40.27
28628;BME280;15815;46.760;19.604;2023-04-04T12:39:25;100247.13;;;8.97;39.77
28628;BME280;15815;46.760;19.604;2023-04-04T12:41:58;100234.31;;;8.93;40.64
28628;BME280;15815;46.760;19.604;2023-04-04T12:44:26;100242.31;;;8.94;40.70
28628;BME280;15815;46.760;19.604;2023-04-04T12:46:55;100239.97;;;9.11;41.19
28628;BME280;15815;46.760;19.604;2023-04-04T12:49:21;100240.00;;;9.18;40.31
28628;BME280;15815;46.760;19.604;2023-04-04T12:51:46;100224.75;;;9.08;39.41
28628;BME280;15815;46.760;19.604;2023-04-04T12:54:31;100234.78;;;9.20;38.84
28628;BME280;15815;46.760;19.604;2023-04-04T12:56:58;100247.63;;;9.21;38.90
28628;BME280;15815;46.760;19.604;2023-04-04T12:59:30;100234.38;;;9.18;38.16
28628;BME280;15815;46.760;19.604;2023-04-04T13:01:56;100245.22;;;9.23;39.08
28628;BME280;15815;46.760;19.604;2023-04-04T13:04:22;100243.59;;;9.25;39.25
28628;BME280;15815;46.760;19.604;2023-04-04T13:06:48;100235.63;;;9.35;39.26
28628;BME280;15815;46.760;19.604;2023-04-04T13:09:20;100239.25;;;9.42;37.94
28628;BME280;15815;46.760;19.604;2023-04-04T13:12:01;100232.78;;;9.31;38.05